createdAt,value
2022-11-28T00:03:44.780Z,21.60
2022-11-28T00:07:48.114Z,18.80
2022-11-28T00:11:52.641Z,21.48
2022-11-28T00:15:58.886Z,18.88
2022-11-28T00:20:02.034Z,20.63
2022-11-28T00:24:05.541Z,17.65
2022-11-28T00:28:09.819Z,19.60
2022-11-28T00:32:12.907Z,21.42
2022-11-28T00:36:16.701Z,19.30
2022-11-28T00:40:19.795Z,19.80
2022-11-28T00:44:24.735Z,17.00
2022-11-28T00:48:28.157Z,19.15
2022-11-28T00:52:33.278Z,18.88
2022-11-28T00:56:39.011Z,18.45
2022-11-28T01:00:43.364Z,18.23
2022-11-28T01:04:46.313Z,20.27
2022-11-28T01:08:49.332Z,19.80
2022-11-28T01:12:52.458Z,18.00
2022-11-28T01:16:56.728Z,16.25
2022-11-28T01:20:59.593Z,18.02
2022-11-28T01:25:02.564Z,18.42
2022-11-28T01:29:05.526Z,15.00
2022-11-28T01:33:09.840Z,17.27
2022-11-28T01:37:12.775Z,17.77
2022-11-28T01:41:17.522Z,17.30
2022-11-28T01:45:23.334Z,19.75
2022-11-28T01:49:32.677Z,19.83
2022-11-28T01:53:39.009Z,18.25
2022-11-28T01:57:42.457Z,15.18
2022-11-28T02:01:46.579Z,14.38
2022-11-28T02:05:52.221Z,14.90
2022-11-28T02:09:56.186Z,15.57
2022-11-28T02:14:11.146Z,14.88
2022-11-28T02:18:30.793Z,16.45
2022-11-28T02:22:41.989Z,14.57
2022-11-28T02:27:19.826Z,18.27
2022-11-28T02:31:37.551Z,15.23
2022-11-28T02:35:53.426Z,16.30
2022-11-28T02:40:08.165Z,15.25
2022-11-28T02:44:16.993Z,16.73
2022-11-28T02:48:28.287Z,16.50
2022-11-28T02:52:37.351Z,15.38
2022-11-28T02:56:40.549Z,15.88
2022-11-28T03:00:45.758Z,18.23
2022-11-28T03:04:56.666Z,16.33
2022-11-28T03:09:25.905Z,16.75
2022-11-28T03:13:36.424Z,15.02
2022-11-28T03:17:47.348Z,15.73
2022-11-28T03:22:00.049Z,15.63
2022-11-28T03:26:08.937Z,17.02
2022-11-28T03:30:19.478Z,12.80
2022-11-28T03:34:25.852Z,17.17
2022-11-28T03:38:34.548Z,16.25
2022-11-28T03:42:42.456Z,15.50
2022-11-28T03:46:48.068Z,14.98
2022-11-28T03:50:59.581Z,17.63
2022-11-28T03:55:07.155Z,16.13
2022-11-28T03:59:17.213Z,13.35
2022-11-28T04:03:27.991Z,14.15
2022-11-28T04:07:38.769Z,17.95
2022-11-28T04:11:48.968Z,15.23
2022-11-28T04:16:00.544Z,16.70
2022-11-28T04:20:10.148Z,15.00
2022-11-28T04:24:16.519Z,14.82
2022-11-28T04:28:23.473Z,14.95
2022-11-28T04:32:30.099Z,15.30
2022-11-28T04:36:35.695Z,13.27
2022-11-28T04:40:46.086Z,12.25
2022-11-28T04:44:54.728Z,13.70
2022-11-28T04:48:59.189Z,13.35
2022-11-28T04:53:06.756Z,14.75
2022-11-28T04:57:15.816Z,12.40
2022-11-28T05:01:23.501Z,14.45
2022-11-28T05:05:28.449Z,15.02
2022-11-28T05:09:31.715Z,13.98
2022-11-28T05:13:34.668Z,13.68
2022-11-28T05:17:42.125Z,14.57
2022-11-28T05:21:47.273Z,13.55
2022-11-28T05:25:50.254Z,13.90
2022-11-28T05:29:53.913Z,13.70
2022-11-28T05:33:57.569Z,14.45
2022-11-28T05:38:02.317Z,14.43
2022-11-28T05:42:05.669Z,12.68
2022-11-28T05:46:08.637Z,13.80
2022-11-28T05:50:12.107Z,12.65
2022-11-28T05:54:16.523Z,13.68
2022-11-28T05:58:19.470Z,14.40
2022-11-28T06:02:22.416Z,13.25
2022-11-28T06:06:27.080Z,12.80
2022-11-28T06:10:32.109Z,15.88
2022-11-28T06:14:35.343Z,12.45
2022-11-28T06:18:38.358Z,14.57
2022-11-28T06:22:41.589Z,12.90
2022-11-28T06:26:45.912Z,18.17
2022-11-28T06:30:48.806Z,16.40
2022-11-28T06:34:51.714Z,17.95
2022-11-28T06:38:55.075Z,15.52
2022-11-28T06:42:59.435Z,17.83
2022-11-28T06:47:02.566Z,12.60
2022-11-28T06:51:07.375Z,14.27
2022-11-28T06:55:10.907Z,19.00
2022-11-28T06:59:15.297Z,14.35
2022-11-28T07:03:18.354Z,15.20
2022-11-28T07:07:21.538Z,15.63
2022-11-28T07:11:26.488Z,16.60
2022-11-28T07:15:30.880Z,15.50
2022-11-28T07:19:34.363Z,16.48
2022-11-28T07:23:37.617Z,13.38
2022-11-28T07:27:40.503Z,14.80
2022-11-28T07:31:45.417Z,13.95
2022-11-28T07:35:48.326Z,15.40
2022-11-28T07:39:51.283Z,16.50
2022-11-28T07:43:56.056Z,17.00
2022-11-28T07:48:00.300Z,15.18
2022-11-28T07:52:03.229Z,13.90
2022-11-28T07:56:07.929Z,15.70
2022-11-28T08:00:11.695Z,17.45
2022-11-28T08:04:19.552Z,16.88
2022-11-28T08:08:22.501Z,16.77
2022-11-28T08:12:25.498Z,14.23
2022-11-28T08:16:30.250Z,13.60
2022-11-28T08:20:34.877Z,14.77
2022-11-28T08:24:37.846Z,15.30
2022-11-28T08:28:41.339Z,12.98
2022-11-28T08:32:44.224Z,16.70
2022-11-28T08:36:49.098Z,18.05
2022-11-28T08:40:51.977Z,13.90
2022-11-28T08:44:55.032Z,14.55
2022-11-28T08:48:57.962Z,13.80
2022-11-28T08:53:07.688Z,12.93
2022-11-28T08:57:11.071Z,17.55
2022-11-28T09:01:18.852Z,13.93
2022-11-28T09:05:21.773Z,12.85
2022-11-28T09:09:30.182Z,13.45
2022-11-28T09:13:35.535Z,12.70
2022-11-28T09:17:38.417Z,11.52
2022-11-28T09:21:42.111Z,12.52
2022-11-28T09:25:46.406Z,16.40
2022-11-28T09:29:49.298Z,14.48
2022-11-28T09:33:52.367Z,14.75
2022-11-28T09:37:55.254Z,12.60
2022-11-28T09:42:12.818Z,15.10
2022-11-28T09:46:24.119Z,12.60
2022-11-28T09:50:31.671Z,13.52
2022-11-28T09:54:44.978Z,16.55
2022-11-28T09:58:55.830Z,11.93
2022-11-28T10:03:33.881Z,13.70
2022-11-28T10:07:53.635Z,12.05
2022-11-28T10:12:12.740Z,11.45
2022-11-28T10:16:24.107Z,14.35
2022-11-28T10:20:29.476Z,11.73
2022-11-28T10:24:38.368Z,14.43
2022-11-28T10:28:45.014Z,13.05
2022-11-28T10:32:56.557Z,12.45
2022-11-28T10:37:04.479Z,15.93
2022-11-28T10:41:15.657Z,11.13
2022-11-28T10:45:27.567Z,12.52
2022-11-28T10:49:46.068Z,12.13
2022-11-28T10:54:00.575Z,10.13
2022-11-28T10:58:15.726Z,10.57
2022-11-28T11:02:23.426Z,11.23
2022-11-28T11:06:40.883Z,11.60
2022-11-28T11:10:50.948Z,10.88
2022-11-28T11:14:54.268Z,10.57
2022-11-28T11:18:57.345Z,11.30
2022-11-28T11:23:04.233Z,10.82
2022-11-28T11:27:15.985Z,9.23
2022-11-28T11:31:25.789Z,13.38
2022-11-28T11:35:32.357Z,13.75
2022-11-28T11:39:49.336Z,11.63
2022-11-28T11:43:52.204Z,16.00
2022-11-28T11:47:55.684Z,11.45
2022-11-28T11:52:00.260Z,12.57
2022-11-28T11:56:05.262Z,12.45
2022-11-28T12:00:16.142Z,14.85
2022-11-28T12:04:44.720Z,11.23
2022-11-28T12:08:52.312Z,11.32
2022-11-28T12:12:56.681Z,10.85
2022-11-28T12:17:46.927Z,13.07
2022-11-28T12:21:44.349Z,10.13
2022-11-28T12:25:53.598Z,13.25
2022-11-28T12:30:07.492Z,13.10
2022-11-28T12:34:22.835Z,11.30
2022-11-28T12:38:36.429Z,12.88
2022-11-28T12:42:51.610Z,13.68
2022-11-28T12:47:04.426Z,11.18
2022-11-28T12:51:20.492Z,11.98
2022-11-28T12:55:31.596Z,12.82
2022-11-28T12:59:43.987Z,11.52
2022-11-28T13:04:04.628Z,14.40
2022-11-28T13:08:23.352Z,11.48
2022-11-28T13:12:36.184Z,11.23
2022-11-28T13:16:44.839Z,12.85
2022-11-28T13:20:53.924Z,12.73
2022-11-28T13:25:03.612Z,13.00
2022-11-28T13:29:17.780Z,12.45
2022-11-28T13:33:37.788Z,13.52
2022-11-28T13:46:51.556Z,13.77
2022-11-28T13:51:02.190Z,13.80
2022-11-28T13:55:27.970Z,11.70
2022-11-28T13:59:33.633Z,16.00
2022-11-28T14:03:45.196Z,12.95
2022-11-28T14:07:49.033Z,14.88
2022-11-28T14:12:07.765Z,13.25
2022-11-28T14:16:23.934Z,14.45
2022-11-28T14:20:33.654Z,12.00
2022-11-28T14:24:52.991Z,12.60
2022-11-28T14:28:56.108Z,12.15
2022-11-28T14:33:03.564Z,13.77
2022-11-28T14:37:57.731Z,11.90
2022-11-28T14:42:59.652Z,13.45
2022-11-28T14:47:08.065Z,13.55
2022-11-28T14:51:12.451Z,13.13
2022-11-28T14:55:22.383Z,11.05
2022-11-28T14:59:34.108Z,14.95
2022-11-28T15:03:44.051Z,12.80
2022-11-28T15:08:02.250Z,11.10
2022-11-28T15:12:17.738Z,13.05
2022-11-28T15:16:22.681Z,12.90
2022-11-28T15:20:30.569Z,12.20
2022-11-28T15:24:36.604Z,12.30
2022-11-28T15:28:39.861Z,12.02
2022-11-28T15:32:43.949Z,14.32
2022-11-28T15:36:52.758Z,14.18
2022-11-28T15:40:58.359Z,13.93
2022-11-28T15:45:06.480Z,14.18
2022-11-28T15:49:24.320Z,13.00
2022-11-28T15:53:27.674Z,14.00
2022-11-28T15:57:33.444Z,16.40
2022-11-28T16:01:36.660Z,16.70
2022-11-28T16:05:40.693Z,15.48
2022-11-28T16:09:57.067Z,17.85
2022-11-28T16:14:08.760Z,16.98
2022-11-28T16:18:15.236Z,16.33
2022-11-28T16:22:20.756Z,14.65
2022-11-28T16:26:31.740Z,16.67
2022-11-28T16:30:38.261Z,15.25
2022-11-28T16:34:46.777Z,15.15
2022-11-28T16:38:51.843Z,15.88
2022-11-28T16:42:56.420Z,18.65
2022-11-28T16:47:01.731Z,17.15
2022-11-28T16:51:30.464Z,13.13
2022-11-28T16:55:41.586Z,13.43
2022-11-28T16:59:46.195Z,13.23
2022-11-28T17:03:53.566Z,15.70
2022-11-28T17:07:57.492Z,14.52
2022-11-28T17:12:04.863Z,14.70
2022-11-28T17:16:16.308Z,14.30
2022-11-28T17:20:20.998Z,12.30
2022-11-28T17:24:26.521Z,14.60
2022-11-28T17:28:29.525Z,16.65
2022-11-28T17:32:32.501Z,16.13
2022-11-28T17:36:36.979Z,16.15
2022-11-28T17:40:42.247Z,16.83
2022-11-28T17:44:45.673Z,13.85
2022-11-28T17:48:49.106Z,15.68
2022-11-28T17:52:53.686Z,14.38
2022-11-28T17:56:56.770Z,15.40
2022-11-28T18:01:00.984Z,16.05
2022-11-28T18:05:05.214Z,15.25
2022-11-28T18:09:12.644Z,15.20
2022-11-28T18:13:17.674Z,13.77
2022-11-28T18:17:20.786Z,15.95
2022-11-28T18:21:25.028Z,13.43
2022-11-28T18:25:29.797Z,15.00
2022-11-28T18:29:34.348Z,17.48
2022-11-28T18:33:37.871Z,18.67
2022-11-28T18:37:41.298Z,14.75
2022-11-28T18:41:45.765Z,16.85
2022-11-28T18:45:48.982Z,16.17
2022-11-28T18:49:52.347Z,15.75
2022-11-28T18:53:56.869Z,19.27
2022-11-28T18:58:01.695Z,19.15
2022-11-28T19:02:04.816Z,17.23
2022-11-28T19:06:10.533Z,19.40
2022-11-28T19:10:14.522Z,16.25
2022-11-28T19:14:21.273Z,17.27
2022-11-28T19:18:24.392Z,18.77
2022-11-28T19:22:27.706Z,18.70
2022-11-28T19:26:33.535Z,18.77
2022-11-28T19:30:38.209Z,18.42
2022-11-28T19:34:41.719Z,19.27
2022-11-28T19:38:44.767Z,18.50
2022-11-28T19:42:48.913Z,18.60
2022-11-28T19:46:53.860Z,19.30
2022-11-28T19:50:57.996Z,17.52
2022-11-28T19:55:01.291Z,18.33
2022-11-28T19:59:04.477Z,18.77
2022-11-28T20:03:09.375Z,21.98
2022-11-28T20:07:12.550Z,17.52
2022-11-28T20:11:17.556Z,16.05
2022-11-28T20:15:20.702Z,20.85
2022-11-28T20:19:26.303Z,20.40
2022-11-28T20:23:30.021Z,24.85
2022-11-28T20:27:34.537Z,19.42
2022-11-28T20:31:42.029Z,19.50
2022-11-28T20:35:46.573Z,20.60
2022-11-28T20:39:49.629Z,20.58
2022-11-28T20:43:52.806Z,19.60
2022-11-28T20:47:55.770Z,20.00
2022-11-28T20:52:00.178Z,22.75
2022-11-28T20:56:05.457Z,19.73
2022-11-28T21:00:09.895Z,22.63
2022-11-28T21:04:16.141Z,22.83
2022-11-28T21:08:20.712Z,21.50
2022-11-28T21:12:24.532Z,22.50
2022-11-28T21:16:29.359Z,20.33
2022-11-28T21:20:32.624Z,26.48
2022-11-28T21:24:37.310Z,18.75
2022-11-28T21:28:41.855Z,22.27
2022-11-28T21:32:44.855Z,22.48
2022-11-28T21:36:48.030Z,23.52
2022-11-28T21:40:55.511Z,21.65
2022-11-28T21:44:58.556Z,20.75
2022-11-28T21:49:01.989Z,22.50
2022-11-28T21:53:05.243Z,20.45
2022-11-28T21:57:10.470Z,19.98
2022-11-28T22:01:15.176Z,20.48
2022-11-28T22:05:18.988Z,19.80
2022-11-28T22:09:22.125Z,22.83
2022-11-28T22:13:26.737Z,24.95
2022-11-28T22:17:31.857Z,23.70
2022-11-28T22:21:54.485Z,20.95
2022-11-28T22:25:59.640Z,24.17
2022-11-28T22:30:04.229Z,21.05
2022-11-28T22:34:07.483Z,20.75
2022-11-28T22:38:11.180Z,22.38
2022-11-28T22:42:14.199Z,18.48
2022-11-28T22:46:18.773Z,24.17
2022-11-28T22:50:22.244Z,22.25
2022-11-28T22:54:25.200Z,22.98
2022-11-28T22:58:28.877Z,20.88
2022-11-28T23:02:33.540Z,19.73
2022-11-28T23:06:37.121Z,21.98
2022-11-28T23:10:40.902Z,20.33
2022-11-28T23:14:44.550Z,24.88
2022-11-28T23:18:51.977Z,22.42
2022-11-28T23:22:56.371Z,20.40
2022-11-28T23:26:59.653Z,22.17
2022-11-28T23:31:07.443Z,22.95
2022-11-28T23:35:11.821Z,20.20
2022-11-28T23:39:16.707Z,18.27
2022-11-28T23:43:19.729Z,18.83
2022-11-28T23:47:22.722Z,20.60
2022-11-28T23:51:27.465Z,20.40
2022-11-28T23:55:30.457Z,19.23
2022-11-28T23:59:33.483Z,18.67
